sensor_id;sensor_type;location;lat;lon;timestamp;P1;durP1;ratioP1;P2;durP2;ratioP2
1262;SDS011;62267;50.112;8.704;2023-04-21T00:00:09;36.47;;;26.43;;
1262;SDS011;62267;50.112;8.704;2023-04-21T00:02:37;42.00;;;27.87;;
1262;SDS011;62267;50.112;8.704;2023-04-21T00:05:08;39.70;;;27.17;;
1262;SDS011;62267;50.112;8.704;2023-04-21T00:07:38;41.93;;;28.60;;
1262;SDS011;62267;50.112;8.704;2023-04-21T00:10:10;37.70;;;27.60;;
1262;SDS011;62267;50.112;8.704;2023-04-21T00:12:38;46.83;;;27.43;;
1262;SDS011;62267;50.112;8.704;2023-04-21T00:15:06;40.87;;;28.20;;
1262;SDS011;62267;50.112;8.704;2023-04-21T00:17:34;45.53;;;29.47;;
1262;SDS011;62267;50.112;8.704;2023-04-21T00:20:01;40.90;;;26.80;;
1262;SDS011;62267;50.112;8.704;2023-04-21T00:22:30;40.00;;;27.97;;
1262;SDS011;62267;50.112;8.704;2023-04-21T00:24:58;38.60;;;26.70;;
1262;SDS011;62267;50.112;8.704;2023-04-21T00:27:25;46.33;;;28.73;;
1262;SDS011;62267;50.112;8.704;2023-04-21T00:29:53;42.47;;;28.43;;
1262;SDS011;62267;50.112;8.704;2023-04-21T00:32:20;42.60;;;27.80;;
1262;SDS011;62267;50.112;8.704;2023-04-21T00:34:49;42.67;;;27.67;;
1262;SDS011;62267;50.112;8.704;2023-04-21T00:37:16;40.23;;;28.13;;
1262;SDS011;62267;50.112;8.704;2023-04-21T00:39:45;40.77;;;28.50;;
1262;SDS011;62267;50.112;8.704;2023-04-21T00:42:16;40.70;;;28.17;;
1262;SDS011;62267;50.112;8.704;2023-04-21T00:44:43;42.80;;;28.97;;
1262;SDS011;62267;50.112;8.704;2023-04-21T00:47:11;41.13;;;28.90;;
1262;SDS011;62267;50.112;8.704;2023-04-21T00:49:40;39.97;;;27.27;;
1262;SDS011;62267;50.112;8.704;2023-04-21T00:52:08;42.37;;;29.50;;
1262;SDS011;62267;50.112;8.704;2023-04-21T00:54:35;42.17;;;28.53;;
1262;SDS011;62267;50.112;8.704;2023-04-21T00:57:03;44.97;;;29.67;;
1262;SDS011;62267;50.112;8.704;2023-04-21T00:59:33;44.73;;;29.03;;
1262;SDS011;62267;50.112;8.704;2023-04-21T01:02:01;43.30;;;28.07;;
1262;SDS011;62267;50.112;8.704;2023-04-21T01:04:30;46.90;;;30.50;;
1262;SDS011;62267;50.112;8.704;2023-04-21T01:07:03;48.07;;;31.87;;
1262;SDS011;62267;50.112;8.704;2023-04-21T01:09:30;47.27;;;31.37;;
1262;SDS011;62267;50.112;8.704;2023-04-21T01:12:02;48.73;;;31.77;;
1262;SDS011;62267;50.112;8.704;2023-04-21T01:14:32;44.97;;;30.70;;
1262;SDS011;62267;50.112;8.704;2023-04-21T01:17:02;48.67;;;29.30;;
1262;SDS011;62267;50.112;8.704;2023-04-21T01:19:34;47.67;;;29.37;;
1262;SDS011;62267;50.112;8.704;2023-04-21T01:22:02;47.43;;;30.80;;
1262;SDS011;62267;50.112;8.704;2023-04-21T01:24:36;47.00;;;31.00;;
1262;SDS011;62267;50.112;8.704;2023-04-21T01:27:07;45.13;;;30.13;;
1262;SDS011;62267;50.112;8.704;2023-04-21T01:29:36;44.57;;;29.10;;
1262;SDS011;62267;50.112;8.704;2023-04-21T01:32:06;43.43;;;29.30;;
1262;SDS011;62267;50.112;8.704;2023-04-21T01:34:34;47.60;;;29.63;;
1262;SDS011;62267;50.112;8.704;2023-04-21T01:37:02;48.60;;;31.30;;
1262;SDS011;62267;50.112;8.704;2023-04-21T01:39:29;48.57;;;29.80;;
1262;SDS011;62267;50.112;8.704;2023-04-21T01:41:57;43.57;;;29.20;;
1262;SDS011;62267;50.112;8.704;2023-04-21T01:44:25;45.60;;;29.70;;
1262;SDS011;62267;50.112;8.704;2023-04-21T01:46:52;48.53;;;30.50;;
1262;SDS011;62267;50.112;8.704;2023-04-21T01:49:20;47.67;;;31.43;;
1262;SDS011;62267;50.112;8.704;2023-04-21T01:51:47;43.33;;;29.57;;
1262;SDS011;62267;50.112;8.704;2023-04-21T01:54:14;46.10;;;30.00;;
1262;SDS011;62267;50.112;8.704;2023-04-21T01:56:42;45.90;;;29.20;;
1262;SDS011;62267;50.112;8.704;2023-04-21T01:59:09;47.77;;;31.17;;
1262;SDS011;62267;50.112;8.704;2023-04-21T02:01:37;48.20;;;31.00;;
1262;SDS011;62267;50.112;8.704;2023-04-21T02:04:04;45.67;;;29.07;;
1262;SDS011;62267;50.112;8.704;2023-04-21T02:06:32;46.63;;;29.53;;
1262;SDS011;62267;50.112;8.704;2023-04-21T02:09:00;49.53;;;30.00;;
1262;SDS011;62267;50.112;8.704;2023-04-21T02:11:29;42.33;;;29.27;;
1262;SDS011;62267;50.112;8.704;2023-04-21T02:13:57;52.43;;;32.90;;
1262;SDS011;62267;50.112;8.704;2023-04-21T02:16:25;43.83;;;28.90;;
1262;SDS011;62267;50.112;8.704;2023-04-21T02:18:53;44.17;;;29.37;;
1262;SDS011;62267;50.112;8.704;2023-04-21T02:21:23;48.80;;;30.60;;
1262;SDS011;62267;50.112;8.704;2023-04-21T02:23:50;45.40;;;28.70;;
1262;SDS011;62267;50.112;8.704;2023-04-21T02:26:18;45.40;;;28.43;;
1262;SDS011;62267;50.112;8.704;2023-04-21T02:28:46;45.50;;;32.07;;
1262;SDS011;62267;50.112;8.704;2023-04-21T02:31:15;48.03;;;31.10;;
1262;SDS011;62267;50.112;8.704;2023-04-21T02:33:43;44.20;;;30.53;;
1262;SDS011;62267;50.112;8.704;2023-04-21T02:36:11;49.73;;;29.30;;
1262;SDS011;62267;50.112;8.704;2023-04-21T02:38:40;49.37;;;28.30;;
1262;SDS011;62267;50.112;8.704;2023-04-21T02:41:09;52.20;;;31.20;;
1262;SDS011;62267;50.112;8.704;2023-04-21T02:43:38;45.00;;;29.57;;
1262;SDS011;62267;50.112;8.704;2023-04-21T02:46:07;45.10;;;30.50;;
1262;SDS011;62267;50.112;8.704;2023-04-21T02:48:35;43.00;;;27.27;;
1262;SDS011;62267;50.112;8.704;2023-04-21T02:51:04;48.83;;;30.20;;
1262;SDS011;62267;50.112;8.704;2023-04-21T02:53:31;44.33;;;28.67;;
1262;SDS011;62267;50.112;8.704;2023-04-21T02:55:59;45.70;;;29.13;;
1262;SDS011;62267;50.112;8.704;2023-04-21T02:58:30;44.90;;;30.40;;
1262;SDS011;62267;50.112;8.704;2023-04-21T03:00:58;43.03;;;28.53;;
1262;SDS011;62267;50.112;8.704;2023-04-21T03:03:26;49.03;;;31.27;;
1262;SDS011;62267;50.112;8.704;2023-04-21T03:05:57;45.40;;;29.20;;
1262;SDS011;62267;50.112;8.704;2023-04-21T03:08:26;46.47;;;30.60;;
1262;SDS011;62267;50.112;8.704;2023-04-21T03:10:54;45.13;;;29.13;;
1262;SDS011;62267;50.112;8.704;2023-04-21T03:13:21;47.10;;;31.23;;
1262;SDS011;62267;50.112;8.704;2023-04-21T03:15:51;42.17;;;29.40;;
1262;SDS011;62267;50.112;8.704;2023-04-21T03:18:21;49.43;;;29.70;;
1262;SDS011;62267;50.112;8.704;2023-04-21T03:20:49;49.70;;;30.43;;
1262;SDS011;62267;50.112;8.704;2023-04-21T03:23:16;51.20;;;31.10;;
1262;SDS011;62267;50.112;8.704;2023-04-21T03:25:44;49.43;;;29.30;;
1262;SDS011;62267;50.112;8.704;2023-04-21T03:28:12;51.37;;;30.33;;
1262;SDS011;62267;50.112;8.704;2023-04-21T03:30:42;47.47;;;30.00;;
1262;SDS011;62267;50.112;8.704;2023-04-21T03:33:11;47.97;;;28.80;;
1262;SDS011;62267;50.112;8.704;2023-04-21T03:35:39;46.63;;;29.60;;
1262;SDS011;62267;50.112;8.704;2023-04-21T03:38:07;47.53;;;29.67;;
1262;SDS011;62267;50.112;8.704;2023-04-21T03:40:34;46.17;;;30.50;;
1262;SDS011;62267;50.112;8.704;2023-04-21T03:43:02;47.73;;;30.37;;
1262;SDS011;62267;50.112;8.704;2023-04-21T03:45:33;46.30;;;29.00;;
1262;SDS011;62267;50.112;8.704;2023-04-21T03:48:03;50.53;;;30.67;;
1262;SDS011;62267;50.112;8.704;2023-04-21T03:50:30;47.30;;;31.00;;
1262;SDS011;62267;50.112;8.704;2023-04-21T03:52:57;49.83;;;30.90;;
1262;SDS011;62267;50.112;8.704;2023-04-21T03:55:24;51.57;;;31.50;;
1262;SDS011;62267;50.112;8.704;2023-04-21T03:57:51;49.73;;;30.80;;
1262;SDS011;62267;50.112;8.704;2023-04-21T04:00:19;49.27;;;32.50;;
1262;SDS011;62267;50.112;8.704;2023-04-21T04:02:46;43.03;;;28.40;;
1262;SDS011;62267;50.112;8.704;2023-04-21T04:05:15;46.60;;;30.20;;
1262;SDS011;62267;50.112;8.704;2023-04-21T04:07:43;48.50;;;29.93;;
1262;SDS011;62267;50.112;8.704;2023-04-21T04:10:11;49.57;;;30.37;;
1262;SDS011;62267;50.112;8.704;2023-04-21T04:12:38;46.03;;;28.00;;
1262;SDS011;62267;50.112;8.704;2023-04-21T04:15:05;45.37;;;28.60;;
1262;SDS011;62267;50.112;8.704;2023-04-21T04:17:33;51.83;;;31.23;;
1262;SDS011;62267;50.112;8.704;2023-04-21T04:20:00;42.90;;;28.40;;
1262;SDS011;62267;50.112;8.704;2023-04-21T04:22:29;44.77;;;28.30;;
1262;SDS011;62267;50.112;8.704;2023-04-21T04:24:56;43.67;;;27.50;;
1262;SDS011;62267;50.112;8.704;2023-04-21T04:27:26;43.20;;;28.77;;
1262;SDS011;62267;50.112;8.704;2023-04-21T04:29:53;45.37;;;29.77;;
1262;SDS011;62267;50.112;8.704;2023-04-21T04:32:20;51.07;;;29.40;;
1262;SDS011;62267;50.112;8.704;2023-04-21T04:34:47;52.07;;;29.73;;
1262;SDS011;62267;50.112;8.704;2023-04-21T04:37:17;45.87;;;28.67;;
1262;SDS011;62267;50.112;8.704;2023-04-21T04:39:47;51.00;;;29.63;;
1262;SDS011;62267;50.112;8.704;2023-04-21T04:42:15;41.77;;;27.60;;
1262;SDS011;62267;50.112;8.704;2023-04-21T04:44:42;45.83;;;30.07;;
1262;SDS011;62267;50.112;8.704;2023-04-21T04:47:10;44.30;;;28.10;;
1262;SDS011;62267;50.112;8.704;2023-04-21T04:49:37;46.80;;;29.63;;
1262;SDS011;62267;50.112;8.704;2023-04-21T04:52:04;47.93;;;29.70;;
1262;SDS011;62267;50.112;8.704;2023-04-21T04:54:32;44.43;;;26.90;;
1262;SDS011;62267;50.112;8.704;2023-04-21T04:56:59;47.53;;;29.73;;
1262;SDS011;62267;50.112;8.704;2023-04-21T04:59:27;42.33;;;27.10;;
1262;SDS011;62267;50.112;8.704;2023-04-21T05:01:56;50.77;;;32.80;;
1262;SDS011;62267;50.112;8.704;2023-04-21T05:04:23;49.40;;;32.20;;
1262;SDS011;62267;50.112;8.704;2023-04-21T05:06:51;48.60;;;29.37;;
1262;SDS011;62267;50.112;8.704;2023-04-21T05:09:20;46.37;;;27.50;;
1262;SDS011;62267;50.112;8.704;2023-04-21T05:11:47;43.67;;;28.47;;
1262;SDS011;62267;50.112;8.704;2023-04-21T05:14:15;44.43;;;29.00;;
1262;SDS011;62267;50.112;8.704;2023-04-21T05:16:43;39.93;;;26.20;;
1262;SDS011;62267;50.112;8.704;2023-04-21T05:19:10;44.20;;;28.33;;
1262;SDS011;62267;50.112;8.704;2023-04-21T05:21:37;39.90;;;26.30;;
1262;SDS011;62267;50.112;8.704;2023-04-21T05:24:04;41.40;;;27.30;;
1262;SDS011;62267;50.112;8.704;2023-04-21T05:26:31;40.10;;;26.87;;
1262;SDS011;62267;50.112;8.704;2023-04-21T05:29:00;39.07;;;25.30;;
1262;SDS011;62267;50.112;8.704;2023-04-21T05:31:30;43.50;;;27.90;;
1262;SDS011;62267;50.112;8.704;2023-04-21T05:33:58;41.00;;;25.00;;
1262;SDS011;62267;50.112;8.704;2023-04-21T05:36:25;40.80;;;25.57;;
1262;SDS011;62267;50.112;8.704;2023-04-21T05:38:53;44.00;;;28.20;;
1262;SDS011;62267;50.112;8.704;2023-04-21T05:41:20;38.27;;;26.10;;
1262;SDS011;62267;50.112;8.704;2023-04-21T05:43:47;41.80;;;26.90;;
1262;SDS011;62267;50.112;8.704;2023-04-21T05:46:14;36.77;;;25.33;;
1262;SDS011;62267;50.112;8.704;2023-04-21T05:48:43;40.53;;;26.03;;
1262;SDS011;62267;50.112;8.704;2023-04-21T05:51:13;38.60;;;26.13;;
1262;SDS011;62267;50.112;8.704;2023-04-21T05:53:42;41.60;;;25.43;;
1262;SDS011;62267;50.112;8.704;2023-04-21T05:56:10;39.43;;;27.77;;
1262;SDS011;62267;50.112;8.704;2023-04-21T05:58:38;40.57;;;28.17;;
1262;SDS011;62267;50.112;8.704;2023-04-21T06:01:05;38.70;;;26.40;;
1262;SDS011;62267;50.112;8.704;2023-04-21T06:03:32;42.63;;;28.20;;
1262;SDS011;62267;50.112;8.704;2023-04-21T06:06:01;42.70;;;28.10;;
1262;SDS011;62267;50.112;8.704;2023-04-21T06:08:28;42.33;;;28.53;;
1262;SDS011;62267;50.112;8.704;2023-04-21T06:10:56;40.90;;;27.70;;
1262;SDS011;62267;50.112;8.704;2023-04-21T06:13:25;43.07;;;26.67;;
1262;SDS011;62267;50.112;8.704;2023-04-21T06:15:56;42.80;;;28.50;;
1262;SDS011;62267;50.112;8.704;2023-04-21T06:18:25;44.57;;;28.00;;
1262;SDS011;62267;50.112;8.704;2023-04-21T06:20:54;40.27;;;26.83;;
1262;SDS011;62267;50.112;8.704;2023-04-21T06:23:21;43.43;;;27.17;;
1262;SDS011;62267;50.112;8.704;2023-04-21T06:26:00;44.77;;;30.13;;
1262;SDS011;62267;50.112;8.704;2023-04-21T06:28:32;41.63;;;27.10;;
1262;SDS011;62267;50.112;8.704;2023-04-21T06:31:00;40.47;;;26.93;;
1262;SDS011;62267;50.112;8.704;2023-04-21T06:33:28;49.93;;;28.67;;
1262;SDS011;62267;50.112;8.704;2023-04-21T06:35:56;44.40;;;28.73;;
1262;SDS011;62267;50.112;8.704;2023-04-21T06:38:23;39.93;;;26.60;;
1262;SDS011;62267;50.112;8.704;2023-04-21T06:40:50;45.70;;;28.87;;
1262;SDS011;62267;50.112;8.704;2023-04-21T06:43:17;41.10;;;27.77;;
1262;SDS011;62267;50.112;8.704;2023-04-21T06:45:45;43.90;;;26.30;;
1262;SDS011;62267;50.112;8.704;2023-04-21T06:48:12;41.07;;;27.37;;
1262;SDS011;62267;50.112;8.704;2023-04-21T06:50:39;43.00;;;27.87;;
1262;SDS011;62267;50.112;8.704;2023-04-21T06:53:09;39.27;;;28.30;;
1262;SDS011;62267;50.112;8.704;2023-04-21T06:55:37;45.00;;;27.50;;
1262;SDS011;62267;50.112;8.704;2023-04-21T06:58:05;35.73;;;24.40;;
1262;SDS011;62267;50.112;8.704;2023-04-21T07:00:32;37.93;;;27.20;;
1262;SDS011;62267;50.112;8.704;2023-04-21T07:03:00;38.03;;;24.97;;
1262;SDS011;62267;50.112;8.704;2023-04-21T07:05:28;41.37;;;26.30;;
1262;SDS011;62267;50.112;8.704;2023-04-21T07:07:56;40.50;;;26.73;;
1262;SDS011;62267;50.112;8.704;2023-04-21T07:10:25;37.87;;;24.13;;
1262;SDS011;62267;50.112;8.704;2023-04-21T07:12:53;40.10;;;28.27;;
1262;SDS011;62267;50.112;8.704;2023-04-21T07:15:21;39.07;;;27.13;;
1262;SDS011;62267;50.112;8.704;2023-04-21T07:17:48;37.87;;;25.83;;
1262;SDS011;62267;50.112;8.704;2023-04-21T07:20:15;36.87;;;26.10;;
1262;SDS011;62267;50.112;8.704;2023-04-21T07:22:44;39.80;;;25.23;;
1262;SDS011;62267;50.112;8.704;2023-04-21T07:25:12;41.77;;;26.00;;
1262;SDS011;62267;50.112;8.704;2023-04-21T07:27:39;37.70;;;26.40;;
1262;SDS011;62267;50.112;8.704;2023-04-21T07:30:06;34.63;;;23.93;;
1262;SDS011;62267;50.112;8.704;2023-04-21T07:32:34;41.77;;;27.83;;
1262;SDS011;62267;50.112;8.704;2023-04-21T07:35:04;38.83;;;27.70;;
1262;SDS011;62267;50.112;8.704;2023-04-21T07:37:31;43.87;;;28.50;;
1262;SDS011;62267;50.112;8.704;2023-04-21T07:39:59;41.03;;;26.30;;
1262;SDS011;62267;50.112;8.704;2023-04-21T07:42:26;39.33;;;25.40;;
1262;SDS011;62267;50.112;8.704;2023-04-21T07:44:54;40.33;;;24.23;;
1262;SDS011;62267;50.112;8.704;2023-04-21T07:47:22;44.07;;;27.00;;
1262;SDS011;62267;50.112;8.704;2023-04-21T07:49:50;36.43;;;24.00;;
1262;SDS011;62267;50.112;8.704;2023-04-21T07:52:17;37.00;;;25.30;;
1262;SDS011;62267;50.112;8.704;2023-04-21T07:54:44;42.33;;;26.80;;
1262;SDS011;62267;50.112;8.704;2023-04-21T07:57:13;38.60;;;25.50;;
1262;SDS011;62267;50.112;8.704;2023-04-21T07:59:41;41.27;;;26.40;;
1262;SDS011;62267;50.112;8.704;2023-04-21T08:02:09;42.23;;;26.70;;
1262;SDS011;62267;50.112;8.704;2023-04-21T08:04:36;41.30;;;27.77;;
1262;SDS011;62267;50.112;8.704;2023-04-21T08:07:04;39.57;;;27.10;;
1262;SDS011;62267;50.112;8.704;2023-04-21T08:09:31;36.33;;;26.57;;
1262;SDS011;62267;50.112;8.704;2023-04-21T08:11:58;44.37;;;28.20;;
1262;SDS011;62267;50.112;8.704;2023-04-21T08:14:27;40.60;;;27.40;;
1262;SDS011;62267;50.112;8.704;2023-04-21T08:16:54;39.70;;;26.30;;
1262;SDS011;62267;50.112;8.704;2023-04-21T08:19:25;40.97;;;26.17;;
1262;SDS011;62267;50.112;8.704;2023-04-21T08:21:52;38.57;;;26.13;;
1262;SDS011;62267;50.112;8.704;2023-04-21T08:24:22;38.57;;;24.30;;
1262;SDS011;62267;50.112;8.704;2023-04-21T08:26:49;39.20;;;26.73;;
1262;SDS011;62267;50.112;8.704;2023-04-21T08:29:17;37.13;;;25.67;;
1262;SDS011;62267;50.112;8.704;2023-04-21T08:31:44;41.03;;;27.40;;
1262;SDS011;62267;50.112;8.704;2023-04-21T08:34:11;36.73;;;25.93;;
1262;SDS011;62267;50.112;8.704;2023-04-21T08:36:40;35.47;;;25.43;;
1262;SDS011;62267;50.112;8.704;2023-04-21T08:39:08;45.43;;;28.27;;
1262;SDS011;62267;50.112;8.704;2023-04-21T08:41:37;34.70;;;23.90;;
1262;SDS011;62267;50.112;8.704;2023-04-21T08:44:06;37.83;;;26.07;;
1262;SDS011;62267;50.112;8.704;2023-04-21T08:46:34;40.33;;;26.37;;
1262;SDS011;62267;50.112;8.704;2023-04-21T08:49:02;39.77;;;24.10;;
1262;SDS011;62267;50.112;8.704;2023-04-21T08:51:29;39.93;;;25.07;;
1262;SDS011;62267;50.112;8.704;2023-04-21T08:53:57;37.70;;;26.07;;
1262;SDS011;62267;50.112;8.704;2023-04-21T08:56:24;41.93;;;26.73;;
1262;SDS011;62267;50.112;8.704;2023-04-21T08:58:52;39.33;;;25.23;;
1262;SDS011;62267;50.112;8.704;2023-04-21T09:01:19;39.40;;;26.00;;
1262;SDS011;62267;50.112;8.704;2023-04-21T09:03:48;37.83;;;25.60;;
1262;SDS011;62267;50.112;8.704;2023-04-21T09:06:40;41.30;;;27.20;;
1262;SDS011;62267;50.112;8.704;2023-04-21T09:09:11;35.17;;;24.90;;
1262;SDS011;62267;50.112;8.704;2023-04-21T09:11:38;35.50;;;25.57;;
1262;SDS011;62267;50.112;8.704;2023-04-21T09:14:07;39.60;;;25.60;;
1262;SDS011;62267;50.112;8.704;2023-04-21T09:16:35;40.53;;;27.60;;
1262;SDS011;62267;50.112;8.704;2023-04-21T09:19:03;37.97;;;26.97;;
1262;SDS011;62267;50.112;8.704;2023-04-21T09:21:39;41.53;;;26.30;;
1262;SDS011;62267;50.112;8.704;2023-04-21T09:24:09;42.60;;;26.90;;
1262;SDS011;62267;50.112;8.704;2023-04-21T09:26:38;39.97;;;26.80;;
1262;SDS011;62267;50.112;8.704;2023-04-21T09:29:09;39.07;;;27.90;;
1262;SDS011;62267;50.112;8.704;2023-04-21T09:31:38;43.63;;;28.17;;
1262;SDS011;62267;50.112;8.704;2023-04-21T09:34:15;48.43;;;29.73;;
1262;SDS011;62267;50.112;8.704;2023-04-21T09:36:43;44.70;;;28.47;;
1262;SDS011;62267;50.112;8.704;2023-04-21T09:39:12;37.13;;;26.80;;
1262;SDS011;62267;50.112;8.704;2023-04-21T09:41:59;41.03;;;27.23;;
1262;SDS011;62267;50.112;8.704;2023-04-21T09:44:27;40.27;;;26.17;;
1262;SDS011;62267;50.112;8.704;2023-04-21T09:47:04;34.60;;;25.37;;
1262;SDS011;62267;50.112;8.704;2023-04-21T09:49:34;38.20;;;26.77;;
1262;SDS011;62267;50.112;8.704;2023-04-21T09:52:02;41.70;;;27.73;;
1262;SDS011;62267;50.112;8.704;2023-04-21T09:54:32;37.00;;;25.07;;
1262;SDS011;62267;50.112;8.704;2023-04-21T09:57:00;36.47;;;25.97;;
1262;SDS011;62267;50.112;8.704;2023-04-21T09:59:29;38.37;;;26.77;;
1262;SDS011;62267;50.112;8.704;2023-04-21T10:01:59;41.73;;;26.77;;
1262;SDS011;62267;50.112;8.704;2023-04-21T10:04:28;39.77;;;27.20;;
1262;SDS011;62267;50.112;8.704;2023-04-21T10:06:59;39.13;;;26.60;;
1262;SDS011;62267;50.112;8.704;2023-04-21T10:09:30;32.90;;;24.80;;
1262;SDS011;62267;50.112;8.704;2023-04-21T10:11:59;37.07;;;25.00;;
1262;SDS011;62267;50.112;8.704;2023-04-21T10:14:27;32.90;;;23.53;;
1262;SDS011;62267;50.112;8.704;2023-04-21T10:16:55;36.33;;;24.63;;
1262;SDS011;62267;50.112;8.704;2023-04-21T10:19:24;34.90;;;23.47;;
1262;SDS011;62267;50.112;8.704;2023-04-21T10:21:55;34.70;;;22.90;;
1262;SDS011;62267;50.112;8.704;2023-04-21T10:24:30;32.40;;;22.30;;
1262;SDS011;62267;50.112;8.704;2023-04-21T10:26:57;33.93;;;23.60;;
1262;SDS011;62267;50.112;8.704;2023-04-21T10:29:29;31.03;;;22.20;;
1262;SDS011;62267;50.112;8.704;2023-04-21T10:32:09;30.60;;;22.33;;
1262;SDS011;62267;50.112;8.704;2023-04-21T10:34:37;31.77;;;22.10;;
1262;SDS011;62267;50.112;8.704;2023-04-21T10:39:36;31.60;;;23.40;;
1262;SDS011;62267;50.112;8.704;2023-04-21T10:44:42;31.83;;;22.40;;
1262;SDS011;62267;50.112;8.704;2023-04-21T10:47:09;35.63;;;23.00;;
1262;SDS011;62267;50.112;8.704;2023-04-21T10:49:37;32.23;;;22.70;;
1262;SDS011;62267;50.112;8.704;2023-04-21T10:52:07;30.10;;;24.00;;
1262;SDS011;62267;50.112;8.704;2023-04-21T10:57:12;26.93;;;21.80;;
1262;SDS011;62267;50.112;8.704;2023-04-21T10:59:40;35.30;;;28.10;;
1262;SDS011;62267;50.112;8.704;2023-04-21T11:02:13;30.00;;;21.20;;
1262;SDS011;62267;50.112;8.704;2023-04-21T11:04:42;28.63;;;22.33;;
1262;SDS011;62267;50.112;8.704;2023-04-21T11:07:14;36.33;;;24.30;;
1262;SDS011;62267;50.112;8.704;2023-04-21T11:09:45;34.37;;;22.70;;
1262;SDS011;62267;50.112;8.704;2023-04-21T11:12:13;31.40;;;24.67;;
1262;SDS011;62267;50.112;8.704;2023-04-21T11:14:42;35.27;;;23.77;;
1262;SDS011;62267;50.112;8.704;2023-04-21T11:17:10;34.20;;;23.43;;
1262;SDS011;62267;50.112;8.704;2023-04-21T11:19:37;31.70;;;22.80;;
1262;SDS011;62267;50.112;8.704;2023-04-21T11:22:06;31.50;;;22.70;;
1262;SDS011;62267;50.112;8.704;2023-04-21T11:24:33;26.27;;;21.80;;
1262;SDS011;62267;50.112;8.704;2023-04-21T11:27:06;29.73;;;21.30;;
1262;SDS011;62267;50.112;8.704;2023-04-21T11:29:38;27.40;;;22.33;;
1262;SDS011;62267;50.112;8.704;2023-04-21T11:32:06;24.73;;;19.97;;
1262;SDS011;62267;50.112;8.704;2023-04-21T11:34:36;25.87;;;21.53;;
1262;SDS011;62267;50.112;8.704;2023-04-21T11:37:05;26.07;;;20.60;;
1262;SDS011;62267;50.112;8.704;2023-04-21T11:39:33;29.30;;;21.57;;
1262;SDS011;62267;50.112;8.704;2023-04-21T11:42:00;25.43;;;20.57;;
1262;SDS011;62267;50.112;8.704;2023-04-21T11:46:58;31.67;;;23.53;;
1262;SDS011;62267;50.112;8.704;2023-04-21T11:49:26;25.50;;;20.67;;
1262;SDS011;62267;50.112;8.704;2023-04-21T11:51:56;24.77;;;18.50;;
1262;SDS011;62267;50.112;8.704;2023-04-21T11:54:23;24.67;;;21.03;;
1262;SDS011;62267;50.112;8.704;2023-04-21T11:56:50;24.23;;;18.40;;
1262;SDS011;62267;50.112;8.704;2023-04-21T11:59:21;27.43;;;20.93;;
1262;SDS011;62267;50.112;8.704;2023-04-21T12:01:52;21.33;;;18.77;;
1262;SDS011;62267;50.112;8.704;2023-04-21T12:04:21;23.83;;;20.70;;
1262;SDS011;62267;50.112;8.704;2023-04-21T12:09:43;23.30;;;18.80;;
1262;SDS011;62267;50.112;8.704;2023-04-21T12:12:11;20.60;;;17.63;;
1262;SDS011;62267;50.112;8.704;2023-04-21T12:14:40;21.53;;;18.03;;
1262;SDS011;62267;50.112;8.704;2023-04-21T12:17:10;24.50;;;18.30;;
1262;SDS011;62267;50.112;8.704;2023-04-21T12:19:38;19.33;;;17.07;;
1262;SDS011;62267;50.112;8.704;2023-04-21T12:22:09;23.07;;;19.00;;
1262;SDS011;62267;50.112;8.704;2023-04-21T12:24:36;20.90;;;17.93;;
1262;SDS011;62267;50.112;8.704;2023-04-21T12:27:04;22.17;;;17.20;;
1262;SDS011;62267;50.112;8.704;2023-04-21T12:29:32;18.60;;;16.70;;
1262;SDS011;62267;50.112;8.704;2023-04-21T12:32:00;20.83;;;17.53;;
1262;SDS011;62267;50.112;8.704;2023-04-21T12:34:29;25.30;;;18.23;;
1262;SDS011;62267;50.112;8.704;2023-04-21T12:36:56;19.63;;;17.03;;
1262;SDS011;62267;50.112;8.704;2023-04-21T12:39:24;23.23;;;18.13;;
1262;SDS011;62267;50.112;8.704;2023-04-21T12:41:51;20.20;;;17.33;;
1262;SDS011;62267;50.112;8.704;2023-04-21T12:44:19;20.93;;;17.73;;
1262;SDS011;62267;50.112;8.704;2023-04-21T12:46:47;21.57;;;17.97;;
1262;SDS011;62267;50.112;8.704;2023-04-21T12:49:14;24.23;;;19.77;;
1262;SDS011;62267;50.112;8.704;2023-04-21T12:51:42;24.37;;;19.60;;
1262;SDS011;62267;50.112;8.704;2023-04-21T12:54:12;25.37;;;18.43;;
1262;SDS011;62267;50.112;8.704;2023-04-21T12:56:41;18.33;;;15.53;;
1262;SDS011;62267;50.112;8.704;2023-04-21T12:59:09;18.47;;;16.50;;
1262;SDS011;62267;50.112;8.704;2023-04-21T13:01:38;23.40;;;16.60;;
1262;SDS011;62267;50.112;8.704;2023-04-21T13:04:06;18.17;;;16.27;;
1262;SDS011;62267;50.112;8.704;2023-04-21T13:06:34;18.60;;;16.57;;
1262;SDS011;62267;50.112;8.704;2023-04-21T13:09:01;24.13;;;16.10;;
1262;SDS011;62267;50.112;8.704;2023-04-21T13:11:28;19.97;;;16.53;;
1262;SDS011;62267;50.112;8.704;2023-04-21T13:13:57;18.90;;;16.47;;
1262;SDS011;62267;50.112;8.704;2023-04-21T13:16:25;16.70;;;15.00;;
1262;SDS011;62267;50.112;8.704;2023-04-21T13:18:55;18.23;;;16.33;;
1262;SDS011;62267;50.112;8.704;2023-04-21T13:21:23;15.50;;;13.90;;
1262;SDS011;62267;50.112;8.704;2023-04-21T13:23:50;15.53;;;13.93;;
1262;SDS011;62267;50.112;8.704;2023-04-21T13:26:18;17.43;;;13.60;;
1262;SDS011;62267;50.112;8.704;2023-04-21T13:28:45;14.80;;;12.83;;
1262;SDS011;62267;50.112;8.704;2023-04-21T13:31:13;18.27;;;15.80;;
1262;SDS011;62267;50.112;8.704;2023-04-21T13:33:41;16.80;;;15.00;;
1262;SDS011;62267;50.112;8.704;2023-04-21T13:36:08;14.93;;;13.53;;
1262;SDS011;62267;50.112;8.704;2023-04-21T13:38:38;22.53;;;14.10;;
1262;SDS011;62267;50.112;8.704;2023-04-21T13:41:07;16.03;;;14.40;;
1262;SDS011;62267;50.112;8.704;2023-04-21T13:43:34;14.30;;;12.90;;
1262;SDS011;62267;50.112;8.704;2023-04-21T13:46:01;14.57;;;13.27;;
1262;SDS011;62267;50.112;8.704;2023-04-21T13:48:29;13.27;;;11.87;;
1262;SDS011;62267;50.112;8.704;2023-04-21T13:50:57;12.90;;;11.53;;
1262;SDS011;62267;50.112;8.704;2023-04-21T13:53:25;12.60;;;11.40;;
1262;SDS011;62267;50.112;8.704;2023-04-21T13:55:52;14.00;;;12.00;;
1262;SDS011;62267;50.112;8.704;2023-04-21T13:58:24;14.83;;;13.27;;
1262;SDS011;62267;50.112;8.704;2023-04-21T14:00:51;15.23;;;13.63;;
1262;SDS011;62267;50.112;8.704;2023-04-21T14:03:21;13.80;;;12.50;;
1262;SDS011;62267;50.112;8.704;2023-04-21T14:05:49;13.00;;;11.70;;
1262;SDS011;62267;50.112;8.704;2023-04-21T14:08:17;12.23;;;10.90;;
1262;SDS011;62267;50.112;8.704;2023-04-21T14:10:46;18.83;;;13.40;;
1262;SDS011;62267;50.112;8.704;2023-04-21T14:13:15;11.93;;;10.73;;
1262;SDS011;62267;50.112;8.704;2023-04-21T14:15:59;12.67;;;11.47;;
1262;SDS011;62267;50.112;8.704;2023-04-21T14:18:27;12.77;;;11.60;;
1262;SDS011;62267;50.112;8.704;2023-04-21T14:20:54;11.60;;;10.47;;
1262;SDS011;62267;50.112;8.704;2023-04-21T14:23:23;11.77;;;10.57;;
1262;SDS011;62267;50.112;8.704;2023-04-21T14:25:51;12.57;;;11.37;;
1262;SDS011;62267;50.112;8.704;2023-04-21T14:28:20;11.77;;;10.60;;
1262;SDS011;62267;50.112;8.704;2023-04-21T14:30:48;11.20;;;10.20;;
1262;SDS011;62267;50.112;8.704;2023-04-21T14:33:17;13.10;;;11.80;;
1262;SDS011;62267;50.112;8.704;2023-04-21T14:35:45;14.20;;;12.80;;
1262;SDS011;62267;50.112;8.704;2023-04-21T14:38:14;12.90;;;11.70;;
1262;SDS011;62267;50.112;8.704;2023-04-21T14:40:41;12.33;;;11.00;;
1262;SDS011;62267;50.112;8.704;2023-04-21T14:43:10;13.83;;;12.50;;
1262;SDS011;62267;50.112;8.704;2023-04-21T14:45:37;14.13;;;12.23;;
1262;SDS011;62267;50.112;8.704;2023-04-21T14:48:07;15.63;;;12.20;;
1262;SDS011;62267;50.112;8.704;2023-04-21T14:50:37;13.87;;;11.87;;
1262;SDS011;62267;50.112;8.704;2023-04-21T14:53:05;11.47;;;10.30;;